createdAt,value
2023-05-04T00:00:28.889Z,5.45
2023-05-04T00:02:57.037Z,5.38
2023-05-04T00:05:25.140Z,4.53
2023-05-04T00:07:53.173Z,5.00
2023-05-04T00:10:23.110Z,5.10
2023-05-04T00:12:51.170Z,5.18
2023-05-04T00:15:19.454Z,4.97
2023-05-04T00:17:47.583Z,5.32
2023-05-04T00:20:15.657Z,5.53
2023-05-04T00:22:43.656Z,5.32
2023-05-04T00:25:12.128Z,5.57
2023-05-04T00:27:41.519Z,5.45
2023-05-04T00:30:11.274Z,5.18
2023-05-04T00:32:39.290Z,5.03
2023-05-04T00:35:08.305Z,5.40
2023-05-04T00:37:36.396Z,5.78
2023-05-04T00:40:04.900Z,4.97
2023-05-04T00:42:33.145Z,5.10
2023-05-04T00:45:02.645Z,5.10
2023-05-04T00:47:30.897Z,5.35
2023-05-04T00:49:59.051Z,5.25
2023-05-04T00:52:27.121Z,5.60
2023-05-04T00:54:56.048Z,6.93
2023-05-04T00:57:24.320Z,5.10
2023-05-04T00:59:52.342Z,5.57
2023-05-04T01:02:21.966Z,5.35
2023-05-04T01:04:50.099Z,5.65
2023-05-04T01:07:29.680Z,5.55
2023-05-04T01:10:03.455Z,5.68
2023-05-04T01:12:36.960Z,5.40
2023-05-04T01:15:05.909Z,5.32
2023-05-04T01:17:35.463Z,6.00
2023-05-04T01:20:04.268Z,5.65
2023-05-04T01:22:33.931Z,5.90
2023-05-04T01:25:02.048Z,5.68
2023-05-04T01:27:36.258Z,5.47
2023-05-04T01:30:08.870Z,6.47
2023-05-04T01:32:38.129Z,6.15
2023-05-04T01:35:06.763Z,6.28
2023-05-04T01:37:36.215Z,6.10
2023-05-04T01:40:05.501Z,5.57
2023-05-04T01:42:33.914Z,6.95
2023-05-04T01:45:03.439Z,5.78
2023-05-04T01:47:31.725Z,6.20
2023-05-04T01:49:59.836Z,5.82
2023-05-04T01:52:27.924Z,6.32
2023-05-04T01:54:57.387Z,6.57
2023-05-04T01:57:25.407Z,6.18
2023-05-04T01:59:53.482Z,5.78
2023-05-04T02:02:21.588Z,6.22
2023-05-04T02:04:49.628Z,7.10
2023-05-04T02:07:17.681Z,6.20
2023-05-04T02:09:45.703Z,6.80
2023-05-04T02:12:15.081Z,6.15
2023-05-04T02:14:43.117Z,6.38
2023-05-04T02:17:11.114Z,6.82
2023-05-04T02:19:39.193Z,6.10
2023-05-04T02:22:07.195Z,6.85
2023-05-04T02:24:35.982Z,6.55
2023-05-04T02:27:04.067Z,6.60
2023-05-04T02:29:33.547Z,7.07
2023-05-04T02:32:01.669Z,6.57
2023-05-04T02:34:30.337Z,6.97
2023-05-04T02:36:58.380Z,6.68
2023-05-04T02:39:26.465Z,6.45
2023-05-04T02:41:54.491Z,6.07
2023-05-04T02:44:22.574Z,6.57
2023-05-04T02:46:51.940Z,5.90
2023-05-04T02:49:19.964Z,6.68
2023-05-04T02:51:48.449Z,7.30
2023-05-04T02:54:16.452Z,6.80
2023-05-04T02:56:44.444Z,6.90
2023-05-04T02:59:12.436Z,7.35
2023-05-04T03:01:40.523Z,6.45
2023-05-04T03:04:10.052Z,6.45
2023-05-04T03:06:38.069Z,6.55
2023-05-04T03:09:06.134Z,6.75
2023-05-04T03:11:34.211Z,6.20
2023-05-04T03:14:02.265Z,6.78
2023-05-04T03:16:30.362Z,7.60
2023-05-04T03:18:58.441Z,6.80
2023-05-04T03:21:27.797Z,6.38
2023-05-04T03:23:55.797Z,7.30
2023-05-04T03:26:23.809Z,6.75
2023-05-04T03:28:51.872Z,7.15
2023-05-04T03:31:19.952Z,6.80
2023-05-04T03:33:47.970Z,6.30
2023-05-04T03:36:16.018Z,7.40
2023-05-04T03:38:45.534Z,7.30
2023-05-04T03:41:13.638Z,7.45
2023-05-04T03:43:42.100Z,6.90
2023-05-04T03:46:10.167Z,6.38
2023-05-04T03:48:38.211Z,7.07
2023-05-04T03:51:07.063Z,7.30
2023-05-04T03:53:35.766Z,7.03
2023-05-04T03:56:05.385Z,7.10
2023-05-04T03:58:33.399Z,6.82
2023-05-04T04:01:03.317Z,7.10
2023-05-04T04:03:31.951Z,6.63
2023-05-04T04:06:00.152Z,6.68
2023-05-04T04:08:28.189Z,7.30
2023-05-04T04:10:56.238Z,6.55
2023-05-04T04:13:25.783Z,6.72
2023-05-04T04:15:53.858Z,6.57
2023-05-04T04:18:24.336Z,6.53
2023-05-04T04:20:52.460Z,6.57
2023-05-04T04:23:21.665Z,7.30
2023-05-04T04:25:49.796Z,8.88
2023-05-04T04:28:17.805Z,7.18
2023-05-04T04:30:47.410Z,7.85
2023-05-04T04:33:16.457Z,6.60
2023-05-04T04:35:44.497Z,6.70
2023-05-04T04:38:12.523Z,6.88
2023-05-04T04:40:40.632Z,5.93
2023-05-04T04:43:08.765Z,6.70
2023-05-04T04:45:36.836Z,6.15
2023-05-04T04:48:06.596Z,6.82
2023-05-04T04:50:34.652Z,6.65
2023-05-04T04:53:02.663Z,7.78
2023-05-04T04:55:30.884Z,6.60
2023-05-04T04:57:58.915Z,6.78
2023-05-04T05:00:27.283Z,7.53
2023-05-04T05:02:55.369Z,6.70
2023-05-04T05:05:24.803Z,7.18
2023-05-04T05:07:53.021Z,6.60
2023-05-04T05:10:22.451Z,6.63
2023-05-04T05:12:50.764Z,6.47
2023-05-04T05:15:19.031Z,6.88
2023-05-04T05:17:47.061Z,7.07
2023-05-04T05:20:15.382Z,7.32
2023-05-04T05:22:44.872Z,7.30
2023-05-04T05:25:13.552Z,6.43
2023-05-04T05:27:41.576Z,8.02
2023-05-04T05:30:09.978Z,6.57
2023-05-04T05:32:38.056Z,7.18
2023-05-04T05:35:06.909Z,6.70
2023-05-04T05:37:34.987Z,6.97
2023-05-04T05:40:07.987Z,6.65
2023-05-04T05:42:36.175Z,6.82
2023-05-04T05:45:04.708Z,7.05
2023-05-04T05:47:32.903Z,6.80
2023-05-04T05:50:00.981Z,6.57
2023-05-04T05:52:29.006Z,7.60
2023-05-04T05:54:57.048Z,6.82
2023-05-04T05:57:26.518Z,5.75
2023-05-04T05:59:55.286Z,6.50
2023-05-04T06:02:23.396Z,5.97
2023-05-04T06:04:51.617Z,6.70
2023-05-04T06:07:19.794Z,7.63
2023-05-04T06:09:47.823Z,6.63
2023-05-04T06:12:17.143Z,5.88
2023-05-04T06:14:47.967Z,6.68
2023-05-04T06:17:17.418Z,7.07
2023-05-04T06:19:46.820Z,7.35
2023-05-04T06:22:16.126Z,5.70
2023-05-04T06:24:44.143Z,6.53
2023-05-04T06:27:12.450Z,5.97
2023-05-04T06:29:41.464Z,6.68
2023-05-04T06:32:11.448Z,6.07
2023-05-04T06:34:39.646Z,5.75
2023-05-04T06:37:07.646Z,5.90
2023-05-04T06:39:35.690Z,6.85
2023-05-04T06:42:03.830Z,6.55
2023-05-04T06:44:31.843Z,5.82
2023-05-04T06:46:59.844Z,6.05
2023-05-04T06:49:32.448Z,6.28
2023-05-04T06:52:01.038Z,6.25
2023-05-04T06:54:29.289Z,5.65
2023-05-04T06:56:57.393Z,5.63
2023-05-04T06:59:25.498Z,5.97
2023-05-04T07:01:53.474Z,5.88
2023-05-04T07:04:23.395Z,5.97
2023-05-04T07:06:53.011Z,5.95
2023-05-04T07:09:21.592Z,4.50
2023-05-04T07:11:49.599Z,4.40
2023-05-04T07:14:17.632Z,5.15
2023-05-04T07:16:45.711Z,4.90
2023-05-04T07:19:14.448Z,5.28
2023-05-04T07:21:42.751Z,4.72
2023-05-04T07:24:12.216Z,5.28
2023-05-04T07:26:40.218Z,4.90
2023-05-04T07:29:08.293Z,4.50
2023-05-04T07:31:36.553Z,4.38
2023-05-04T07:34:04.609Z,4.60
2023-05-04T07:36:35.489Z,4.65
2023-05-04T07:39:03.617Z,3.63
2023-05-04T07:41:33.070Z,3.72
2023-05-04T07:44:01.112Z,4.20
2023-05-04T07:46:29.193Z,4.30
2023-05-04T07:48:57.302Z,4.00
2023-05-04T07:51:25.531Z,3.95
2023-05-04T07:53:53.589Z,4.30
2023-05-04T07:56:21.675Z,4.75
2023-05-04T07:58:51.758Z,4.35
2023-05-04T08:01:19.761Z,4.45
2023-05-04T08:03:48.486Z,4.32
2023-05-04T08:06:16.480Z,4.65
2023-05-04T08:08:44.812Z,3.95
2023-05-04T08:11:20.754Z,4.25
2023-05-04T08:13:50.869Z,4.70
2023-05-04T08:16:18.999Z,4.32
2023-05-04T08:18:47.086Z,4.00
2023-05-04T08:21:15.111Z,3.90
2023-05-04T08:23:43.577Z,4.13
2023-05-04T08:26:11.684Z,3.65
2023-05-04T08:28:40.705Z,3.63
2023-05-04T08:31:11.040Z,3.90
2023-05-04T08:33:39.396Z,4.10
2023-05-04T08:36:08.951Z,3.10
2023-05-04T08:38:37.196Z,4.30
2023-05-04T08:41:05.397Z,4.18
2023-05-04T08:43:35.871Z,3.70
2023-05-04T08:46:04.933Z,3.80
2023-05-04T08:48:35.141Z,4.03
2023-05-04T08:51:04.374Z,3.92
2023-05-04T08:53:33.460Z,3.80
2023-05-04T08:56:04.527Z,4.53
2023-05-04T08:58:33.097Z,3.50
2023-05-04T09:01:02.570Z,3.45
2023-05-04T09:03:31.095Z,3.80
2023-05-04T09:06:01.834Z,4.38
2023-05-04T09:08:29.865Z,3.70
2023-05-04T09:10:57.868Z,4.00
2023-05-04T09:13:26.194Z,3.90
2023-05-04T09:15:57.648Z,4.05
2023-05-04T09:18:26.028Z,3.83
2023-05-04T09:20:54.226Z,3.92
2023-05-04T09:23:23.596Z,3.90
2023-05-04T09:25:52.938Z,3.38
2023-05-04T09:28:22.720Z,3.80
2023-05-04T09:30:51.658Z,3.45
2023-05-04T09:33:27.279Z,3.72
2023-05-04T09:35:55.630Z,4.05
2023-05-04T09:38:28.340Z,2.90
2023-05-04T09:40:56.539Z,4.10
2023-05-04T09:43:25.166Z,3.40
2023-05-04T09:45:53.370Z,3.83
2023-05-04T09:48:25.800Z,3.15
2023-05-04T09:50:54.866Z,3.92
2023-05-04T09:53:24.869Z,3.60
2023-05-04T09:56:05.747Z,3.60
2023-05-04T09:58:35.813Z,3.55
2023-05-04T10:01:03.846Z,3.60
2023-05-04T10:03:32.285Z,3.78
2023-05-04T10:06:00.813Z,3.63
2023-05-04T10:08:29.604Z,3.47
2023-05-04T10:10:59.670Z,3.70
2023-05-04T10:13:28.063Z,3.42
2023-05-04T10:16:12.358Z,3.65
2023-05-04T10:18:54.400Z,3.28
2023-05-04T10:21:30.891Z,3.75
2023-05-04T10:24:31.231Z,3.15
2023-05-04T10:27:07.038Z,3.50
2023-05-04T10:29:35.609Z,3.25
2023-05-04T10:32:04.034Z,3.25
2023-05-04T10:34:33.744Z,3.28
2023-05-04T10:37:02.910Z,3.22
2023-05-04T10:39:32.409Z,3.25
2023-05-04T10:42:05.863Z,3.90
2023-05-04T10:44:36.240Z,3.20
2023-05-04T10:47:06.748Z,2.92
2023-05-04T10:49:35.615Z,2.88
2023-05-04T10:52:11.459Z,3.50
2023-05-04T10:54:41.403Z,2.40
2023-05-04T10:57:12.544Z,2.92
2023-05-04T10:59:41.336Z,2.67
2023-05-04T11:02:09.735Z,2.50
2023-05-04T11:04:37.962Z,2.67
2023-05-04T11:07:08.466Z,2.65
2023-05-04T11:09:38.029Z,2.60
2023-05-04T11:12:06.824Z,2.75
2023-05-04T11:14:39.033Z,3.08
2023-05-04T11:17:20.258Z,2.55
2023-05-04T11:19:55.207Z,2.78
2023-05-04T11:22:23.540Z,2.15
2023-05-04T11:24:51.669Z,3.47
2023-05-04T11:27:24.222Z,2.50
2023-05-04T11:29:57.934Z,2.33
2023-05-04T11:32:36.006Z,2.42
2023-05-04T11:35:04.997Z,2.13
2023-05-04T11:37:39.571Z,2.22
2023-05-04T11:40:11.268Z,2.42
2023-05-04T11:42:40.032Z,2.08
2023-05-04T11:45:12.760Z,2.10
2023-05-04T11:47:41.672Z,2.25
2023-05-04T11:50:11.792Z,1.90
2023-05-04T11:52:40.951Z,2.30
2023-05-04T11:55:10.706Z,1.88
2023-05-04T11:57:39.181Z,2.75
2023-05-04T12:00:10.382Z,2.22
2023-05-04T12:02:38.667Z,2.25
2023-05-04T12:05:14.058Z,2.38
2023-05-04T12:07:42.330Z,2.35
2023-05-04T12:10:10.999Z,2.40
2023-05-04T12:12:39.217Z,2.20
2023-05-04T12:15:10.975Z,1.88
2023-05-04T12:17:42.584Z,1.77
2023-05-04T12:20:11.375Z,1.80
2023-05-04T12:22:39.674Z,1.80
2023-05-04T12:25:09.337Z,1.85
2023-05-04T12:27:42.470Z,2.17
2023-05-04T12:30:13.394Z,2.17
2023-05-04T12:32:41.647Z,2.20
2023-05-04T12:35:10.451Z,1.90
2023-05-04T12:37:39.068Z,2.15
2023-05-04T12:40:21.153Z,2.00
2023-05-04T12:42:56.216Z,2.08
2023-05-04T12:45:25.857Z,2.03
2023-05-04T12:47:54.133Z,2.00
2023-05-04T12:50:23.009Z,2.10
2023-05-04T12:52:51.168Z,1.75
2023-05-04T12:55:19.311Z,1.70
2023-05-04T12:57:47.381Z,1.20
2023-05-04T13:00:16.751Z,2.22
2023-05-04T13:02:46.192Z,2.50
2023-05-04T13:05:15.777Z,1.90
2023-05-04T13:07:45.326Z,1.98
2023-05-04T13:10:13.459Z,1.85
2023-05-04T13:12:43.531Z,2.33
2023-05-04T13:15:15.805Z,1.65
2023-05-04T13:17:45.647Z,2.13
2023-05-04T13:20:14.512Z,1.55
2023-05-04T13:22:42.908Z,1.92
2023-05-04T13:25:11.375Z,1.50
2023-05-04T13:27:39.522Z,2.08
2023-05-04T13:30:09.025Z,1.70
2023-05-04T13:32:37.186Z,1.90
2023-05-04T13:35:08.214Z,1.38
2023-05-04T13:37:38.173Z,1.60
2023-05-04T13:40:07.129Z,1.92
2023-05-04T13:42:37.037Z,1.65
2023-05-04T13:45:06.571Z,1.60
2023-05-04T13:47:36.953Z,1.48
2023-05-04T13:50:07.626Z,1.33
2023-05-04T13:52:35.876Z,1.88
2023-05-04T13:55:04.704Z,1.83
2023-05-04T13:57:33.132Z,1.60
2023-05-04T14:00:07.699Z,1.70
2023-05-04T14:02:36.659Z,2.05
2023-05-04T14:05:07.464Z,1.70
2023-05-04T14:07:35.844Z,1.67
2023-05-04T14:10:04.706Z,1.60
2023-05-04T14:12:32.951Z,1.55
2023-05-04T14:15:01.587Z,1.60
2023-05-04T14:17:29.680Z,1.50
2023-05-04T14:19:58.917Z,1.65
2023-05-04T14:22:29.414Z,1.75
2023-05-04T14:24:57.584Z,1.40
2023-05-04T14:27:49.382Z,1.73
2023-05-04T14:30:17.809Z,1.88
2023-05-04T14:32:45.884Z,1.25
2023-05-04T14:35:14.387Z,1.77
2023-05-04T14:37:43.790Z,1.67
2023-05-04T14:40:12.420Z,1.30
2023-05-04T14:42:40.949Z,1.63
2023-05-04T14:45:10.419Z,1.40
2023-05-04T14:47:38.802Z,2.05
2023-05-04T14:50:08.285Z,1.80
2023-05-04T14:52:37.622Z,1.67
2023-05-04T14:55:08.014Z,1.80
2023-05-04T14:57:36.844Z,1.70
2023-05-04T15:00:09.589Z,1.88
2023-05-04T15:02:39.316Z,1.83
2023-05-04T15:05:10.276Z,1.98
2023-05-04T15:07:38.388Z,2.20
2023-05-04T15:10:09.973Z,1.90
2023-05-04T15:12:39.649Z,2.20
2023-05-04T15:15:08.727Z,1.90
2023-05-04T15:17:36.839Z,2.00
2023-05-04T15:20:05.753Z,1.95
2023-05-04T15:22:33.958Z,1.85
2023-05-04T15:25:02.714Z,1.80
2023-05-04T15:27:32.144Z,2.00
2023-05-04T15:30:00.394Z,2.15
2023-05-04T15:32:28.546Z,2.33
2023-05-04T15:38:09.999Z,1.80
2023-05-04T15:41:26.607Z,1.73
2023-05-04T15:43:56.253Z,1.95
2023-05-04T15:46:27.207Z,2.13
2023-05-04T15:48:55.874Z,2.05
2023-05-04T15:51:24.154Z,2.20
2023-05-04T15:53:52.520Z,1.92
2023-05-04T15:56:21.457Z,1.95
2023-05-04T15:58:49.549Z,1.85
2023-05-04T16:01:19.020Z,1.75
2023-05-04T16:03:47.171Z,1.98
2023-05-04T16:06:15.777Z,1.90
2023-05-04T16:08:43.988Z,1.75
2023-05-04T16:11:12.140Z,2.22
2023-05-04T16:13:40.277Z,1.90
2023-05-04T16:16:09.442Z,2.00
2023-05-04T16:18:38.984Z,1.83
2023-05-04T16:21:08.867Z,1.90
2023-05-04T16:23:37.465Z,1.92
2023-05-04T16:26:05.781Z,1.98
2023-05-04T16:28:34.183Z,2.13
2023-05-04T16:31:05.212Z,1.58
2023-05-04T16:33:33.381Z,2.08
2023-05-04T16:36:02.864Z,1.60
2023-05-04T16:38:30.976Z,2.08
2023-05-04T16:40:59.081Z,1.75
2023-05-04T16:43:27.151Z,1.83
2023-05-04T16:45:55.409Z,1.88
2023-05-04T16:48:23.497Z,1.70
2023-05-04T16:50:51.799Z,1.80
2023-05-04T16:53:21.315Z,2.55
2023-05-04T16:55:50.901Z,1.80
2023-05-04T16:58:19.032Z,1.92
2023-05-04T17:00:47.122Z,2.60
2023-05-04T17:03:15.289Z,2.08
2023-05-04T17:05:43.403Z,2.90
2023-05-04T17:08:12.610Z,2.10
2023-05-04T17:10:42.770Z,1.90
2023-05-04T17:13:10.926Z,1.70
2023-05-04T17:15:39.313Z,2.20
2023-05-04T17:18:07.616Z,2.05
2023-05-04T17:20:35.818Z,2.28
2023-05-04T17:23:04.009Z,2.05
2023-05-04T17:25:32.155Z,2.25
2023-05-04T17:28:01.639Z,2.83
2023-05-04T17:30:29.818Z,2.20
2023-05-04T17:32:58.028Z,1.83
2023-05-04T17:35:26.772Z,2.05
2023-05-04T17:37:57.898Z,2.15
2023-05-04T17:40:27.215Z,2.20
2023-05-04T17:42:55.863Z,2.10
2023-05-04T17:45:25.541Z,2.13
2023-05-04T17:47:53.741Z,2.38
2023-05-04T17:50:22.245Z,2.20
2023-05-04T17:52:53.521Z,2.00
2023-05-04T17:55:23.520Z,2.00
2023-05-04T17:57:51.971Z,2.10
2023-05-04T18:00:20.728Z,2.00
2023-05-04T18:02:50.280Z,2.35
2023-05-04T18:05:18.645Z,2.40
2023-05-04T18:07:46.763Z,2.42
2023-05-04T18:10:14.857Z,2.58
2023-05-04T18:12:42.980Z,5.93
2023-05-04T18:15:12.037Z,6.10
2023-05-04T18:17:40.302Z,3.05
2023-05-04T18:20:12.761Z,3.35
2023-05-04T18:22:41.059Z,3.15
2023-05-04T18:25:10.244Z,2.95
2023-05-04T18:27:38.610Z,3.42
2023-05-04T18:30:08.489Z,2.80
2023-05-04T18:32:36.900Z,2.92
2023-05-04T18:35:05.226Z,3.42
2023-05-04T18:37:34.735Z,2.53
2023-05-04T18:40:04.476Z,2.42
2023-05-04T18:42:32.742Z,2.75
2023-05-04T18:45:00.850Z,2.63
2023-05-04T18:47:29.077Z,4.07
2023-05-04T18:49:57.190Z,3.15
2023-05-04T18:52:25.252Z,3.03
2023-05-04T18:54:55.703Z,2.90
2023-05-04T18:57:23.836Z,2.58
2023-05-04T18:59:51.951Z,2.38
2023-05-04T19:02:20.093Z,2.30
2023-05-04T19:04:48.282Z,2.60
2023-05-04T19:07:17.162Z,2.47
2023-05-04T19:09:46.483Z,2.67
2023-05-04T19:12:15.922Z,2.97
2023-05-04T19:14:44.193Z,3.08
2023-05-04T19:17:14.577Z,2.80
2023-05-04T19:19:42.726Z,2.53
2023-05-04T19:22:11.587Z,3.13
2023-05-04T19:24:40.016Z,2.80
2023-05-04T19:27:08.348Z,2.35
2023-05-04T19:29:37.843Z,2.63
2023-05-04T19:32:19.920Z,3.10
2023-05-04T19:34:51.508Z,2.72
2023-05-04T19:37:19.630Z,2.80
2023-05-04T19:39:47.755Z,2.63
2023-05-04T19:42:16.065Z,3.03
2023-05-04T19:44:45.563Z,5.70
2023-05-04T19:47:13.808Z,6.85
2023-05-04T19:49:41.958Z,8.77
2023-05-04T19:52:10.056Z,6.15
2023-05-04T19:54:41.098Z,4.05
2023-05-04T19:57:10.058Z,3.45
2023-05-04T19:59:38.206Z,2.60
2023-05-04T20:02:08.774Z,2.78
2023-05-04T20:04:36.869Z,3.17
2023-05-04T20:07:05.172Z,3.03
2023-05-04T20:09:33.282Z,3.13
2023-05-04T20:12:01.776Z,3.20
2023-05-04T20:14:29.918Z,3.22
2023-05-04T20:16:58.178Z,2.97
2023-05-04T20:19:27.734Z,3.03
2023-05-04T20:21:55.784Z,2.88
2023-05-04T20:24:24.041Z,2.95
2023-05-04T20:26:52.317Z,3.67
2023-05-04T20:29:23.358Z,2.78
2023-05-04T20:31:51.685Z,3.20
2023-05-04T20:34:19.929Z,3.22
2023-05-04T20:36:49.921Z,2.72
2023-05-04T20:39:18.108Z,3.00
2023-05-04T20:41:46.261Z,2.92
2023-05-04T20:44:14.345Z,3.28
2023-05-04T20:46:42.507Z,3.20
2023-05-04T20:49:10.982Z,2.65
2023-05-04T20:51:39.527Z,3.05
2023-05-04T20:54:09.124Z,3.28
2023-05-04T20:56:37.194Z,3.85
2023-05-04T20:59:05.599Z,4.18
2023-05-04T21:01:34.637Z,3.95
2023-05-04T21:04:02.987Z,3.95
2023-05-04T21:06:31.275Z,2.95
2023-05-04T21:08:59.462Z,3.67
2023-05-04T21:11:28.993Z,3.15
2023-05-04T21:13:57.071Z,3.72
2023-05-04T21:16:26.014Z,4.15
2023-05-04T21:18:54.229Z,3.92
2023-05-04T21:21:22.284Z,4.32
2023-05-04T21:23:50.352Z,4.47
2023-05-04T21:26:18.435Z,4.30
2023-05-04T21:28:47.905Z,5.10
2023-05-04T21:31:16.293Z,4.32
2023-05-04T21:33:44.393Z,4.57
2023-05-04T21:36:13.934Z,4.20
2023-05-04T21:38:42.635Z,4.38
2023-05-04T21:41:12.306Z,6.43
2023-05-04T21:43:40.471Z,3.88
2023-05-04T21:46:12.026Z,4.50
2023-05-04T21:48:40.772Z,4.63
2023-05-04T21:51:09.026Z,4.45
2023-05-04T21:53:37.247Z,4.57
2023-05-04T21:56:08.002Z,5.32
2023-05-04T21:58:37.247Z,5.45
2023-05-04T22:01:05.715Z,4.80
2023-05-04T22:03:35.385Z,4.78
2023-05-04T22:06:03.641Z,5.30
2023-05-04T22:08:31.773Z,4.97
2023-05-04T22:10:59.873Z,5.45
2023-05-04T22:13:28.646Z,4.55
2023-05-04T22:15:56.717Z,4.50
2023-05-04T22:18:24.788Z,4.68
2023-05-04T22:20:54.240Z,5.10
2023-05-04T22:23:22.339Z,5.07
2023-05-04T22:25:50.451Z,4.13
2023-05-04T22:28:18.518Z,3.97
2023-05-04T22:30:46.889Z,4.32
2023-05-04T22:33:15.022Z,4.45
2023-05-04T22:35:43.029Z,4.47
2023-05-04T22:38:14.287Z,5.25
2023-05-04T22:40:43.818Z,4.47
2023-05-04T22:43:11.918Z,4.43
2023-05-04T22:45:40.238Z,5.13
2023-05-04T22:48:08.640Z,4.45
2023-05-04T22:50:36.710Z,5.47
2023-05-04T22:53:04.837Z,4.35
2023-05-04T22:55:34.435Z,4.07
2023-05-04T22:58:02.509Z,4.15
2023-05-04T23:00:30.678Z,4.20
2023-05-04T23:02:59.117Z,4.43
2023-05-04T23:05:27.865Z,4.90
2023-05-04T23:07:55.966Z,4.38
2023-05-04T23:10:25.277Z,4.57
2023-05-04T23:12:54.765Z,4.90
2023-05-04T23:15:24.590Z,4.30
2023-05-04T23:17:52.638Z,4.85
2023-05-04T23:20:21.042Z,4.20
2023-05-04T23:22:49.054Z,4.45
2023-05-04T23:25:17.174Z,4.47
2023-05-04T23:27:46.329Z,4.70
2023-05-04T23:30:15.900Z,4.63
2023-05-04T23:32:43.978Z,4.45
2023-05-04T23:35:12.061Z,4.32
2023-05-04T23:37:40.148Z,3.58
2023-05-04T23:40:10.206Z,4.45
2023-05-04T23:42:38.467Z,4.55
2023-05-04T23:45:07.525Z,4.38
2023-05-04T23:47:37.034Z,3.88
2023-05-04T23:50:05.623Z,4.10
2023-05-04T23:52:34.362Z,3.67
2023-05-04T23:55:02.776Z,4.03
2023-05-04T23:57:30.828Z,3.85
2023-05-04T23:59:58.904Z,4.90
